Time;durP1;ratioP1;P1;durP2;ratioP2;P2;SDS_P1;SDS_P2;PMS_P1;PMS_P2;Temp;Humidity;BMP_temperature;BMP_pressure;BME280_temperature;BME280_humidity;BME280_pressure;Samples;Min_cycle;Max_cycle;Signal;HPM_P1;HPM_P2
2021/01/27 00:00:34;;;;;;;45.12;19.75;;;;;;;-0.16;81.10;99463.20;1756040;81;25727;-40
2021/01/27 00:03:04;;;;;;;41.02;19.82;;;;;;;-0.18;81.27;99461.34;1756202;81;26028;-56
2021/01/27 00:05:41;;;;;;;42.17;19.82;;;;;;;-0.18;81.43;99461.88;1756377;81;25663;-55
2021/01/27 00:08:08;;;;;;;46.75;20.05;;;;;;;-0.18;81.48;99464.54;1756223;81;25713;-54
2021/01/27 00:10:38;;;;;;;50.50;21.57;;;;;;;-0.20;81.56;99456.28;1756395;81;25746;-54
2021/01/27 00:13:09;;;;;;;41.28;18.87;;;;;;;-0.18;81.65;99459.22;1759556;80;25617;-47
2021/01/27 00:15:40;;;;;;;42.83;19.98;;;;;;;-0.20;81.77;99456.82;1761960;81;26362;-41
2021/01/27 00:18:11;;;;;;;50.23;23.57;;;;;;;-0.23;81.80;99446.16;1761852;81;25779;-54
2021/01/27 00:20:38;;;;;;;42.53;19.92;;;;;;;-0.21;81.96;99457.33;1761682;81;25657;-52
2021/01/27 00:23:06;;;;;;;46.90;22.07;;;;;;;-0.21;82.02;99452.55;1761771;81;25755;-52
2021/01/27 00:25:35;;;;;;;42.67;20.43;;;;;;;-0.22;82.08;99457.61;1762042;81;25750;-53
2021/01/27 00:28:05;;;;;;;46.47;21.17;;;;;;;-0.21;82.30;99454.67;1762315;81;26655;-41
2021/01/27 00:30:38;;;;;;;47.33;21.37;;;;;;;-0.22;82.28;99459.73;1762020;81;25734;-41
2021/01/27 00:33:07;;;;;;;47.90;21.05;;;;;;;-0.23;82.25;99448.81;1762024;81;25662;-41
2021/01/27 00:35:39;;;;;;;49.40;20.90;;;;;;;-0.24;82.27;99454.39;1762081;81;25734;-53
2021/01/27 00:38:20;;;;;;;44.00;20.90;;;;;;;-0.25;82.44;99456.25;1762156;81;25887;-54
2021/01/27 00:40:47;;;;;;;44.63;20.65;;;;;;;-0.25;82.43;99446.95;1761792;81;25777;-53
2021/01/27 00:43:16;;;;;;;46.08;21.42;;;;;;;-0.24;82.64;99458.38;1761976;81;25638;-53
2021/01/27 00:45:43;;;;;;;42.83;21.48;;;;;;;-0.24;82.54;99457.05;1762152;81;25659;-53
2021/01/27 00:48:11;;;;;;;49.90;21.57;;;;;;;-0.24;82.57;99447.74;1762003;81;25655;-51
2021/01/27 00:50:38;;;;;;;48.23;22.95;;;;;;;-0.23;82.64;99445.37;1762046;81;25630;-51
2021/01/27 00:53:06;;;;;;;47.38;22.42;;;;;;;-0.24;82.65;99444.58;1762034;81;25714;-44
2021/01/27 00:55:34;;;;;;;42.38;21.35;;;;;;;-0.21;82.66;99455.20;1762030;81;25603;-47
2021/01/27 00:58:02;;;;;;;42.73;21.75;;;;;;;-0.20;82.66;99444.86;1761949;81;25567;-52
2021/01/27 01:00:35;;;;;;;44.20;20.70;;;;;;;-0.20;82.63;99439.00;1762103;81;25651;-53
2021/01/27 01:03:04;;;;;;;40.78;20.40;;;;;;;-0.20;82.67;99443.53;1762069;81;25660;-55
2021/01/27 01:05:43;;;;;;;43.10;20.97;;;;;;;-0.18;82.63;99441.41;1762001;81;26443;-45
2021/01/27 01:08:15;;;;;;;47.13;21.48;;;;;;;-0.18;82.66;99445.39;1762215;81;25682;-48
2021/01/27 01:10:54;;;;;;;42.67;20.35;;;;;;;-0.15;82.65;99440.08;1761961;81;25674;-49
2021/01/27 01:13:25;;;;;;;50.17;22.25;;;;;;;-0.15;82.69;99444.88;1774920;80;25757;-48
2021/01/27 01:15:54;;;;;;;43.98;21.12;;;;;;;-0.13;82.66;99447.28;1786752;80;25752;-40
2021/01/27 01:18:22;;;;;;;47.33;21.82;;;;;;;-0.13;82.67;99437.44;1786742;79;26693;-53
2021/01/27 01:20:50;;;;;;;42.05;21.33;;;;;;;-0.10;82.65;99439.59;1786620;79;25684;-53
2021/01/27 01:23:20;;;;;;;53.73;22.70;;;;;;;-0.10;82.69;99448.08;1786580;80;25685;-49
2021/01/27 01:25:48;;;;;;;42.00;20.85;;;;;;;-0.10;82.56;99435.60;1786710;79;25617;-47
2021/01/27 01:28:16;;;;;;;49.33;21.82;;;;;;;-0.08;82.63;99441.99;1786743;79;26273;-40
2021/01/27 01:30:46;;;;;;;45.03;21.23;;;;;;;-0.07;82.57;99443.58;1786747;80;27043;-54
2021/01/27 01:33:20;;;;;;;41.70;20.05;;;;;;;-0.07;82.68;99440.91;1786580;79;25960;-47
2021/01/27 01:35:49;;;;;;;39.80;19.77;;;;;;;-0.07;82.60;99443.06;1786632;80;25665;-44
2021/01/27 01:38:16;;;;;;;47.90;21.20;;;;;;;-0.04;82.60;99441.73;1786723;79;25689;-40
2021/01/27 01:40:50;;;;;;;46.13;22.75;;;;;;;-0.04;82.58;99440.41;1786462;79;25617;-56
2021/01/27 01:43:30;;;;;;;44.93;21.00;;;;;;;-0.05;82.59;99440.94;1786320;79;25773;-53
2021/01/27 01:46:02;;;;;;;42.35;21.07;;;;;;;-0.05;82.56;99447.59;1786614;80;25702;-40
2021/01/27 01:48:45;;;;;;;42.20;20.32;;;;;;;-0.04;82.57;99448.38;1786402;80;25592;-48
2021/01/27 01:51:51;;;;;;;44.18;21.80;;;;;;;-0.04;82.59;99444.39;1757588;80;25718;-40
2021/01/27 01:54:40;;;;;;;43.87;21.27;;;;;;;-0.03;82.64;99442.02;1786204;80;25570;-52
2021/01/27 01:57:25;;;;;;;45.45;21.42;;;;;;;-0.02;82.58;99453.72;1786651;79;26213;-40
2021/01/27 01:59:57;;;;;;;44.30;22.42;;;;;;;-0.02;82.62;99448.41;1786742;79;25880;-55
2021/01/27 02:02:24;;;;;;;45.43;22.10;;;;;;;-0.01;82.61;99446.54;1786796;80;25567;-48
2021/01/27 02:05:08;;;;;;;47.48;21.30;;;;;;;0.01;82.62;99440.96;1785961;80;25579;-57
2021/01/27 02:07:36;;;;;;;43.87;21.17;;;;;;;0.01;82.59;99448.94;1787987;79;25582;-52
2021/01/27 02:10:06;;;;;;;45.43;20.70;;;;;;;0.01;82.56;99447.61;1787905;80;25772;-56
2021/01/27 02:12:53;;;;;;;42.50;21.07;;;;;;;0.00;82.51;99441.50;1786269;80;25530;-57
2021/01/27 02:15:35;;;;;;;42.67;20.82;;;;;;;-0.03;82.50;99444.67;1762677;81;25548;-54
2021/01/27 02:18:42;;;;;;;41.00;20.00;;;;;;;-0.01;82.55;99451.86;1763312;81;25533;-55
2021/01/27 02:22:02;;;;;;;39.35;19.45;;;;;;;-0.01;82.55;99444.67;1762666;81;25451;-41
2021/01/27 02:24:49;;;;;;;;;;;;;;;0.00;82.57;99449.48;1729753;81;26811;-55
2021/01/27 02:27:27;;;;;;;40.83;19.48;;;;;;;0.01;82.61;99452.93;1763157;81;25369;-43
2021/01/27 02:30:23;;;;;;;39.58;19.55;;;;;;;0.00;82.64;99456.12;1763262;81;25522;-48
2021/01/27 02:33:33;;;;;;;37.55;19.70;;;;;;;0.00;82.61;99454.80;1763086;81;25609;-55
2021/01/27 02:36:10;;;;;;;39.33;19.77;;;;;;;0.00;82.60;99449.48;1762581;81;25606;-55
2021/01/27 02:39:03;;;;;;;35.92;18.00;;;;;;;0.01;82.58;99456.91;1762470;81;27147;-55
2021/01/27 02:41:41;;;;;;;42.00;19.57;;;;;;;-0.01;82.55;99452.64;1763124;81;25607;-49
2021/01/27 02:44:14;;;;;;;36.85;18.67;;;;;;;-0.01;82.48;99455.84;1762935;81;25529;-55
2021/01/27 02:46:53;;;;;;;39.70;19.27;;;;;;;-0.01;82.51;99449.20;1763165;81;25376;-57
2021/01/27 02:49:52;;;;;;;34.45;18.10;;;;;;;0.00;82.53;99453.47;1763334;81;25352;-56
2021/01/27 02:52:31;;;;;;;40.92;19.00;;;;;;;0.02;82.55;99458.50;1720182;83;32719;-57
2021/01/27 02:55:14;;;;;;;34.65;17.30;;;;;;;0.03;82.55;99451.59;1719879;83;25658;-56
2021/01/27 02:57:58;;;;;;;36.20;17.92;;;;;;;0.04;82.56;99461.19;1720101;83;25602;-56
2021/01/27 03:00:38;;;;;;;40.73;20.52;;;;;;;0.12;82.57;99455.38;1848697;76;32753;-57
2021/01/27 03:03:22;;;;;;;41.98;19.65;;;;;;;0.06;82.56;99459.06;1818744;78;25520;-54
2021/01/27 03:06:02;;;;;;;39.03;17.73;;;;;;;0.14;82.58;99460.44;1848742;76;33133;-56
2021/01/27 03:08:40;;;;;;;37.08;17.77;;;;;;;0.07;82.52;99453.20;1818200;78;25384;-40
2021/01/27 03:11:24;;;;;;;42.83;21.00;;;;;;;0.08;82.51;99454.27;1818640;78;27223;-57
2021/01/27 03:13:51;;;;;;;39.38;19.07;;;;;;;0.08;82.48;99461.46;1818389;78;25741;-40
2021/01/27 03:16:23;;;;;;;37.35;19.52;;;;;;;0.10;82.48;99460.16;1818787;78;25607;-57
2021/01/27 03:18:56;;;;;;;35.92;18.77;;;;;;;0.09;82.35;99459.87;1818729;78;25353;-41
2021/01/27 03:21:26;;;;;;;41.63;18.85;;;;;;;0.11;82.42;99467.06;1818739;78;25641;-40
2021/01/27 03:23:59;;;;;;;36.20;17.70;;;;;;;0.11;82.38;99461.73;1818670;78;25740;-48
2021/01/27 03:27:04;;;;;;;33.73;17.85;;;;;;;0.12;82.35;99469.17;1818621;78;25317;-57
2021/01/27 03:29:39;;;;;;;36.28;17.27;;;;;;;0.13;82.25;99470.25;1818835;78;25564;-45
2021/01/27 03:32:11;;;;;;;29.63;15.38;;;;;;;0.14;82.16;99467.08;1817386;78;26065;-55
2021/01/27 03:34:42;;;;;;;30.57;16.73;;;;;;;0.15;82.17;99470.81;1818350;78;25566;-56
2021/01/27 03:37:14;;;;;;;28.73;16.05;;;;;;;0.15;82.06;99471.33;1818753;78;25902;-46
2021/01/27 03:39:44;;;;;;;32.58;15.48;;;;;;;0.15;82.01;99469.99;1818447;78;25480;-42
2021/01/27 03:42:19;;;;;;;29.27;15.88;;;;;;;0.16;81.83;99473.73;1818628;78;25389;-49
2021/01/27 03:44:51;;;;;;;30.43;15.38;;;;;;;0.16;81.90;99477.72;1818621;78;25531;-54
2021/01/27 03:47:35;;;;;;;28.35;15.72;;;;;;;0.18;81.75;99470.81;1818324;78;25337;-54
2021/01/27 03:50:13;;;;;;;27.00;15.13;;;;;;;0.20;81.68;99476.66;1817558;78;26147;-53
2021/01/27 03:53:05;;;;;;;28.75;15.40;;;;;;;0.20;81.41;99473.21;1818713;78;25572;-47
2021/01/27 03:55:49;;;;;;;29.40;14.60;;;;;;;0.19;81.50;99481.73;1818615;78;25560;-51
2021/01/27 03:58:37;;;;;;;28.23;15.63;;;;;;;0.20;81.56;99488.63;1818757;78;25412;-43
2021/01/27 04:01:08;;;;;;;29.00;15.15;;;;;;;0.22;81.37;99476.41;1818561;78;25535;-56
2021/01/27 04:03:35;;;;;;;24.98;14.75;;;;;;;0.22;81.37;99479.06;1818688;78;27006;-55
2021/01/27 04:06:04;;;;;;;28.38;14.65;;;;;;;0.22;81.26;99479.06;1818554;78;25515;-51
2021/01/27 04:08:31;;;;;;;30.30;15.28;;;;;;;0.23;81.33;99486.00;1818760;78;25404;-54
2021/01/27 04:11:02;;;;;;;27.67;13.90;;;;;;;0.22;81.14;99475.08;1818683;78;25495;-57
2021/01/27 04:13:29;;;;;;;24.87;13.60;;;;;;;0.21;81.16;99478.27;1818690;78;25468;-56
2021/01/27 04:15:57;;;;;;;23.52;13.22;;;;;;;0.23;81.05;99478.02;1818439;78;26205;-57
2021/01/27 04:18:25;;;;;;;24.05;12.80;;;;;;;0.23;80.86;99474.03;1818118;78;25607;-56
2021/01/27 04:20:52;;;;;;;27.13;14.20;;;;;;;0.23;81.00;99478.02;1818011;78;25570;-43
2021/01/27 04:23:19;;;;;;;24.98;13.83;;;;;;;0.22;81.03;99483.84;1818048;78;25555;-53
2021/01/27 04:25:46;;;;;;;25.48;14.13;;;;;;;0.23;80.98;99478.81;1818040;78;25419;-55
2021/01/27 04:28:13;;;;;;;22.73;13.40;;;;;;;0.24;80.83;99481.75;1818010;78;26151;-54
2021/01/27 04:30:41;;;;;;;24.63;13.13;;;;;;;0.23;80.77;99480.14;1817995;78;25543;-46
2021/01/27 04:33:11;;;;;;;24.30;13.32;;;;;;;0.24;80.60;99482.26;1818135;78;25547;-49
2021/01/27 04:35:38;;;;;;;26.07;13.13;;;;;;;0.23;80.81;99480.14;1818018;78;25610;-53
2021/01/27 04:38:05;;;;;;;21.90;12.13;;;;;;;0.25;80.68;99485.20;1818107;78;25372;-49
2021/01/27 04:40:40;;;;;;;22.50;12.90;;;;;;;0.23;80.51;99480.14;1818047;78;25761;-54
2021/01/27 04:43:27;;;;;;;22.45;13.30;;;;;;;0.23;80.62;99484.67;1817923;78;25571;-42
2021/01/27 04:46:11;;;;;;;24.30;11.70;;;;;;;0.24;80.67;99486.25;1817729;78;25454;-44
2021/01/27 04:49:17;;;;;;;21.42;11.68;;;;;;;0.23;80.47;99488.13;1817137;78;25386;-56
2021/01/27 04:52:16;;;;;;;24.47;11.88;;;;;;;0.22;80.54;99483.84;1818153;78;25597;-39
2021/01/27 04:55:13;;;;;;;20.00;11.55;;;;;;;0.22;80.53;99486.51;1817985;78;26644;-55
2021/01/27 04:58:20;;;;;;;20.17;11.30;;;;;;;0.21;80.26;99473.49;1817630;78;25745;-47
2021/01/27 05:01:17;;;;;;;21.40;11.50;;;;;;;0.21;80.58;99482.80;1818010;78;25529;-53
2021/01/27 05:04:32;;;;;;;21.17;10.08;;;;;;;0.21;80.63;99488.13;1817391;78;25366;-55
2021/01/27 05:07:11;;;;;;;23.45;11.45;;;;;;;0.22;80.58;99493.70;1818127;78;25465;-56
2021/01/27 05:09:49;;;;;;;24.32;12.73;;;;;;;0.18;80.61;99496.08;1818112;78;26148;-57
2021/01/27 05:12:17;;;;;;;22.52;12.37;;;;;;;0.19;80.60;99487.05;1814309;78;25556;-56
2021/01/27 05:14:47;;;;;;;19.57;11.50;;;;;;;0.18;80.68;99490.22;1817830;78;25350;-55
2021/01/27 05:17:19;;;;;;;17.37;10.23;;;;;;;0.18;80.54;99496.87;1817936;78;25375;-55
2021/01/27 05:19:48;;;;;;;21.77;12.03;;;;;;;0.17;80.42;99498.45;1818029;78;25334;-56
2021/01/27 05:22:17;;;;;;;22.13;11.88;;;;;;;0.17;80.55;99498.45;1818069;78;25685;-55
2021/01/27 05:24:45;;;;;;;23.57;12.78;;;;;;;0.17;80.57;99495.80;1817989;78;25511;-48
2021/01/27 05:27:35;;;;;;;24.18;12.23;;;;;;;0.16;80.54;99497.66;1817928;78;25514;-43
2021/01/27 05:30:22;;;;;;;20.68;11.57;;;;;;;0.15;80.51;99496.08;1817890;78;25666;-45
2021/01/27 05:32:56;;;;;;;23.40;12.05;;;;;;;0.15;80.57;99493.93;1817952;78;25536;-56
2021/01/27 05:35:31;;;;;;;23.90;12.05;;;;;;;0.15;80.64;99497.92;1817985;78;25747;-57
2021/01/27 05:38:00;;;;;;;21.12;12.03;;;;;;;0.16;80.56;99502.98;1817658;78;25531;-40
2021/01/27 05:40:34;;;;;;;21.65;12.58;;;;;;;0.16;80.53;99502.19;1818131;78;30473;-49
2021/01/27 05:43:17;;;;;;;23.15;11.65;;;;;;;0.14;80.46;99501.66;1817848;78;25528;-40
2021/01/27 05:45:48;;;;;;;20.48;11.22;;;;;;;0.13;80.41;99502.70;1817954;78;25335;-40
2021/01/27 05:48:34;;;;;;;19.40;11.60;;;;;;;0.11;80.48;99502.96;1817714;78;25759;-42
2021/01/27 05:51:10;;;;;;;20.90;11.70;;;;;;;0.13;80.61;99508.02;1817990;78;25523;-49
2021/01/27 05:53:37;;;;;;;19.10;10.58;;;;;;;0.13;80.46;99512.02;1817969;78;25463;-57
2021/01/27 05:56:13;;;;;;;16.45;9.28;;;;;;;0.12;80.46;99503.24;1817861;78;25598;-40
2021/01/27 05:58:45;;;;;;;16.32;9.95;;;;;;;0.12;80.35;99498.44;1818007;78;25343;-44
2021/01/27 06:01:35;;;;;;;17.32;10.15;;;;;;;0.11;80.31;99500.30;1817894;78;25682;-49
2021/01/27 06:04:13;;;;;;;20.70;9.83;;;;;;;0.11;80.37;99502.96;1817866;78;25519;-55
2021/01/27 06:06:52;;;;;;;18.35;9.73;;;;;;;0.10;80.31;99500.55;1817586;78;25559;-46
2021/01/27 06:09:42;;;;;;;18.37;10.18;;;;;;;0.09;80.24;99505.63;1799838;78;25485;-56
2021/01/27 06:12:23;;;;;;;14.60;8.28;;;;;;;0.08;80.04;99509.33;1818054;78;25395;-57
2021/01/27 06:15:05;;;;;;;13.18;8.78;;;;;;;0.08;80.07;99509.33;1818013;78;26909;-44
2021/01/27 06:17:49;;;;;;;15.05;8.78;;;;;;;0.08;80.15;99519.97;1816966;78;25567;-50
2021/01/27 06:20:26;;;;;;;15.80;8.43;;;;;;;0.08;80.13;99517.30;1817970;78;25378;-40
2021/01/27 06:23:15;;;;;;;12.93;7.22;;;;;;;0.09;80.02;99516.27;1817970;78;25560;-57
2021/01/27 06:25:51;;;;;;;10.88;5.75;;;;;;;0.08;79.90;99521.30;1818076;78;25368;-56
2021/01/27 06:28:48;;;;;;;11.20;6.15;;;;;;;0.09;79.84;99522.91;1817610;78;25981;-55
2021/01/27 06:31:53;;;;;;;17.23;8.93;;;;;;;0.09;79.67;99521.58;1817428;78;25518;-39
2021/01/27 06:34:47;;;;;;;15.35;8.73;;;;;;;0.08;79.50;99529.27;1817727;78;25592;-56
2021/01/27 06:37:25;;;;;;;15.53;6.92;;;;;;;0.08;79.55;99528.73;1817750;78;25337;-40
2021/01/27 06:40:01;;;;;;;13.20;6.75;;;;;;;0.07;79.01;99528.98;1799801;78;25345;-54
2021/01/27 06:42:48;;;;;;;13.43;7.53;;;;;;;0.06;79.21;99530.86;1817901;78;25770;-39
2021/01/27 06:45:57;;;;;;;11.08;6.47;;;;;;;0.05;79.22;99530.61;1817439;78;25727;-57
2021/01/27 06:48:35;;;;;;;11.05;6.08;;;;;;;0.03;78.97;99532.70;1817874;78;25608;-53
2021/01/27 06:51:34;;;;;;;11.25;5.62;;;;;;;0.02;78.84;99527.13;1817807;78;25468;-56
2021/01/27 06:54:44;;;;;;;12.33;6.03;;;;;;;0.02;78.88;99535.61;1817971;78;25606;-42
2021/01/27 06:57:32;;;;;;;10.25;5.55;;;;;;;0.01;78.69;99533.48;1817796;78;25951;-49
2021/01/27 07:00:53;;;;;;;8.65;4.37;;;;;;;0.00;78.75;99537.22;1817172;78;25627;-54
2021/01/27 07:03:42;;;;;;;8.10;4.85;;;;;;;0.01;78.69;99529.50;1817845;78;25357;-48
2021/01/27 07:06:31;;;;;;;7.83;4.65;;;;;;;0.03;78.72;99541.21;1821640;78;25661;-50
2021/01/27 07:09:10;;;;;;;10.35;5.10;;;;;;;0.04;78.62;99540.95;1825860;78;25575;-44
2021/01/27 07:12:08;;;;;;;9.65;4.85;;;;;;;0.04;78.57;99547.61;1826258;78;25942;-52
2021/01/27 07:15:12;;;;;;;12.85;4.65;;;;;;;0.05;78.20;99548.39;1827133;78;25591;-45
2021/01/27 07:18:00;;;;;;;13.78;5.83;;;;;;;0.06;78.18;99549.47;1826918;78;25539;-44
2021/01/27 07:20:50;;;;;;;12.40;5.40;;;;;;;0.06;78.15;99549.47;1827087;78;25688;-52
2021/01/27 07:23:28;;;;;;;10.10;4.55;;;;;;;0.08;77.81;99551.87;1827234;78;25482;-54
2021/01/27 07:26:00;;;;;;;10.23;5.75;;;;;;;0.08;77.90;99556.66;1827117;78;25978;-40
2021/01/27 07:28:48;;;;;;;9.33;4.80;;;;;;;0.10;78.00;99551.91;1827111;78;25744;-54
2021/01/27 07:31:32;;;;;;;10.43;5.05;;;;;;;0.12;77.71;99557.77;1826932;78;25760;-52
2021/01/27 07:34:19;;;;;;;10.88;5.37;;;;;;;0.13;77.77;99558.02;1827219;78;25326;-53
2021/01/27 07:37:22;;;;;;;10.05;5.08;;;;;;;0.15;77.69;99563.91;1827259;78;25573;-51
2021/01/27 07:40:22;;;;;;;7.30;4.33;;;;;;;0.16;77.77;99562.83;1827152;78;26404;-54
2021/01/27 07:43:17;;;;;;;12.85;5.40;;;;;;;0.18;77.61;99563.36;1827088;78;25321;-39
2021/01/27 07:45:51;;;;;;;9.48;5.10;;;;;;;0.20;77.65;99567.09;1827018;78;25376;-55
2021/01/27 07:48:39;;;;;;;8.85;5.08;;;;;;;0.21;77.69;99571.38;1827205;78;25326;-54
2021/01/27 07:51:14;;;;;;;7.40;4.10;;;;;;;0.23;77.53;99565.80;1827312;78;25536;-53
2021/01/27 07:53:49;;;;;;;9.08;4.72;;;;;;;0.25;77.55;99567.66;1827005;78;26647;-41
2021/01/27 07:56:52;;;;;;;7.80;3.95;;;;;;;0.27;77.70;99574.84;1825492;78;25780;-53
2021/01/27 07:59:36;;;;;;;8.83;4.42;;;;;;;0.28;77.40;99571.94;1812119;78;25583;-50
2021/01/27 08:02:11;;;;;;;7.67;4.30;;;;;;;0.30;77.36;99576.46;1827031;78;25507;-47
2021/01/27 08:04:55;;;;;;;8.90;5.00;;;;;;;0.32;77.48;99575.70;1827218;78;25547;-49
2021/01/27 08:07:42;;;;;;;12.03;5.55;;;;;;;0.34;77.52;99580.23;1819803;78;25681;-41
2021/01/27 08:10:15;;;;;;;11.57;4.00;;;;;;;0.36;77.41;99582.63;1818019;78;25653;-50
2021/01/27 08:12:47;;;;;;;7.67;4.15;;;;;;;0.39;77.30;99586.08;1818049;78;25362;-54
2021/01/27 08:15:27;;;;;;;8.83;4.33;;;;;;;0.41;77.45;99589.81;1816965;78;25333;-51
2021/01/27 08:18:02;;;;;;;5.85;4.17;;;;;;;0.42;77.43;99590.09;1816255;78;25536;-49
2021/01/27 08:20:44;;;;;;;6.28;3.72;;;;;;;0.44;77.36;99590.63;1817986;78;26913;-52
2021/01/27 08:23:26;;;;;;;7.03;4.62;;;;;;;0.41;77.23;99593.30;1817705;78;25362;-52
2021/01/27 08:26:06;;;;;;;8.30;4.70;;;;;;;0.42;77.18;99595.42;1818013;78;25684;-51
2021/01/27 08:28:41;;;;;;;8.88;4.60;;;;;;;0.42;77.37;99598.08;1817875;78;25557;-51
2021/01/27 08:31:14;;;;;;;7.90;4.60;;;;;;;0.44;77.41;99594.09;1818126;78;25325;-46
2021/01/27 08:33:50;;;;;;;7.28;4.58;;;;;;;0.44;77.50;99596.75;1817767;78;25695;-49
2021/01/27 08:36:34;;;;;;;8.53;4.58;;;;;;;0.45;77.39;99600.23;1817963;78;25389;-53
2021/01/27 08:39:10;;;;;;;12.05;4.62;;;;;;;0.45;77.35;99605.02;1818008;78;25377;-41
2021/01/27 08:42:05;;;;;;;8.80;4.75;;;;;;;0.41;77.29;99610.59;1817934;78;25337;-42
2021/01/27 08:44:37;;;;;;;10.25;5.12;;;;;;;0.40;77.34;99619.63;1815053;78;25554;-51
2021/01/27 08:47:27;;;;;;;8.55;4.85;;;;;;;0.38;77.60;99615.62;1818070;78;26843;-41
2021/01/27 08:50:00;;;;;;;8.50;5.60;;;;;;;0.36;77.69;99619.34;1816526;78;25379;-40
2021/01/27 08:52:32;;;;;;;9.40;5.87;;;;;;;0.38;77.76;99619.63;1817975;78;25390;-42
2021/01/27 08:54:59;;;;;;;8.58;6.17;;;;;;;0.38;77.92;99619.08;1817811;78;25539;-52
2021/01/27 08:57:36;;;;;;;9.48;6.05;;;;;;;0.40;77.93;99621.48;1816774;78;25625;-49
2021/01/27 09:00:23;;;;;;;7.95;5.80;;;;;;;0.41;78.02;99620.41;1816498;78;25834;-45
2021/01/27 09:03:04;;;;;;;9.63;6.53;;;;;;;0.40;77.81;99620.16;1816431;78;25950;-51
2021/01/27 09:05:40;;;;;;;10.80;5.75;;;;;;;0.40;77.96;99626.81;1816672;78;25693;-45
2021/01/27 09:08:21;;;;;;;12.98;6.90;;;;;;;0.40;77.98;99628.14;1825403;78;25705;-41
2021/01/27 09:10:59;;;;;;;13.10;7.00;;;;;;;0.43;78.23;99636.41;1826023;78;25674;-42
2021/01/27 09:13:42;;;;;;;12.07;6.70;;;;;;;0.48;78.36;99634.31;1824993;78;25767;-49
2021/01/27 09:16:23;;;;;;;10.28;6.55;;;;;;;0.51;78.17;99636.44;1798327;78;25672;-56
2021/01/27 09:18:57;;;;;;;10.50;7.00;;;;;;;0.52;78.06;99633.52;1826029;78;25848;-57
2021/01/27 09:21:25;;;;;;;16.15;7.35;;;;;;;0.53;78.03;99633.80;1825516;78;25969;-51
2021/01/27 09:24:11;;;;;;;10.40;7.20;;;;;;;0.55;78.00;99637.00;1825816;78;25677;-53
2021/01/27 09:26:48;;;;;;;10.13;6.85;;;;;;;0.55;77.86;99627.69;1823234;78;25740;-56
2021/01/27 09:29:23;;;;;;;12.00;6.92;;;;;;;0.58;77.87;99634.36;1825647;78;25677;-50
2021/01/27 09:31:52;;;;;;;13.25;6.20;;;;;;;0.61;77.86;99639.14;1825776;78;25669;-45
2021/01/27 09:34:30;;;;;;;14.83;7.37;;;;;;;0.62;77.79;99640.76;1825868;78;25771;-50
2021/01/27 09:37:20;;;;;;;14.55;6.92;;;;;;;0.64;77.77;99637.30;1825792;78;25815;-44
2021/01/27 09:40:08;;;;;;;11.57;7.72;;;;;;;0.67;77.77;99638.66;1825931;78;26652;-49
2021/01/27 09:42:35;;;;;;;12.90;6.65;;;;;;;0.70;77.92;99638.94;1825697;78;26328;-47
2021/01/27 09:45:09;;;;;;;10.82;6.58;;;;;;;0.71;77.65;99638.41;1826015;78;25632;-42
2021/01/27 09:47:42;;;;;;;12.88;6.50;;;;;;;0.73;77.59;99638.43;1798252;78;25727;-47
2021/01/27 09:50:11;;;;;;;11.00;6.75;;;;;;;0.76;77.49;99643.75;1825909;78;25609;-43
2021/01/27 09:52:42;;;;;;;12.03;6.70;;;;;;;0.77;77.42;99645.36;1826136;78;25692;-55
2021/01/27 09:55:14;;;;;;;15.60;6.80;;;;;;;0.76;77.32;99645.08;1825696;78;25598;-45
2021/01/27 09:57:43;;;;;;;10.65;6.67;;;;;;;0.78;77.20;99644.28;1825927;78;25704;-52
2021/01/27 10:00:25;;;;;;;11.90;6.05;;;;;;;0.78;77.24;99649.61;1826002;78;25653;-51
2021/01/27 10:02:52;;;;;;;10.10;5.78;;;;;;;0.79;77.09;99644.56;1825877;78;25653;-54
2021/01/27 10:05:39;;;;;;;11.10;5.67;;;;;;;0.78;77.02;99646.95;1825909;78;25692;-55
2021/01/27 10:08:26;;;;;;;9.13;5.67;;;;;;;0.78;77.02;99642.95;1818176;77;25726;-53
2021/01/27 10:11:30;;;;;;;8.63;5.62;;;;;;;0.80;76.93;99640.03;1816768;78;25737;-57
2021/01/27 10:14:02;;;;;;;9.05;5.05;;;;;;;0.78;76.71;99642.95;1816747;78;25696;-53
2021/01/27 10:16:30;;;;;;;9.25;5.42;;;;;;;0.77;76.59;99643.21;1816451;78;26307;-54
2021/01/27 10:19:04;;;;;;;10.23;5.97;;;;;;;0.78;76.66;99650.15;1816570;78;25752;-56
2021/01/27 10:21:44;;;;;;;9.58;5.50;;;;;;;0.78;76.67;99648.81;1816575;78;25685;-53
2021/01/27 10:24:48;;;;;;;9.65;5.10;;;;;;;0.79;76.62;99655.22;1816187;78;25650;-53
2021/01/27 10:27:33;;;;;;;8.80;5.35;;;;;;;0.81;76.50;99649.09;1816638;78;26023;-50
2021/01/27 10:30:05;;;;;;;6.50;4.62;;;;;;;0.82;76.34;99649.89;1816732;78;26214;-49
2021/01/27 10:32:39;;;;;;;7.67;4.92;;;;;;;0.82;76.12;99648.05;1816637;78;26622;-47
2021/01/27 10:35:29;;;;;;;10.30;5.22;;;;;;;0.83;76.07;99638.19;1816628;78;25717;-47
2021/01/27 10:38:12;;;;;;;6.72;3.98;;;;;;;0.84;75.76;99650.45;1816635;78;25705;-43
2021/01/27 10:40:37;;;;;;;5.33;3.50;;;;;;;0.82;75.70;99649.38;1816259;78;25550;-46
2021/01/27 10:43:12;;;;;;;6.62;3.80;;;;;;;0.85;75.86;99644.05;1816444;78;25658;-47
2021/01/27 10:45:43;;;;;;;5.35;3.35;;;;;;;0.86;75.75;99645.13;1797042;78;26990;-49
2021/01/27 10:48:27;;;;;;;6.95;3.67;;;;;;;0.87;75.51;99640.08;1816578;78;25698;-52
2021/01/27 10:51:08;;;;;;;5.45;3.33;;;;;;;0.86;75.34;99640.34;1815928;78;25686;-48
2021/01/27 10:53:44;;;;;;;3.25;2.62;;;;;;;0.85;75.15;99644.05;1785558;78;25757;-50
2021/01/27 10:56:14;;;;;;;6.53;2.95;;;;;;;0.85;75.40;99635.55;1816536;78;25590;-44
2021/01/27 10:58:41;;;;;;;5.58;3.40;;;;;;;0.86;75.52;99641.13;1816313;78;25940;-40
2021/01/27 11:01:08;;;;;;;8.90;3.70;;;;;;;0.88;75.47;99642.20;1816482;78;25695;-49
2021/01/27 11:03:35;;;;;;;8.03;4.55;;;;;;;0.92;75.52;99636.64;1816599;78;25757;-46
2021/01/27 11:06:03;;;;;;;9.33;4.42;;;;;;;0.95;75.45;99637.43;1816544;78;25691;-43
2021/01/27 11:08:33;;;;;;;8.33;5.03;;;;;;;0.98;75.46;99628.13;1816588;78;25891;-52
2021/01/27 11:11:04;;;;;;;8.05;4.60;;;;;;;1.01;75.35;99630.28;1816553;78;25689;-46
2021/01/27 11:13:32;;;;;;;10.13;5.22;;;;;;;1.01;75.11;99629.74;1816464;78;25724;-44
2021/01/27 11:16:00;;;;;;;9.15;5.00;;;;;;;1.02;75.16;99631.35;1816623;78;25725;-54
2021/01/27 11:18:27;;;;;;;11.00;4.85;;;;;;;1.02;75.24;99632.69;1816486;78;26335;-41
2021/01/27 11:20:55;;;;;;;8.60;5.10;;;;;;;1.05;75.23;99632.14;1816648;78;25645;-46
2021/01/27 11:23:22;;;;;;;9.83;5.72;;;;;;;1.07;75.21;99638.54;1816520;78;25893;-49
2021/01/27 11:25:50;;;;;;;8.08;5.10;;;;;;;1.08;75.26;99636.95;1784943;78;25639;-47
2021/01/27 11:28:17;;;;;;;10.75;5.83;;;;;;;1.08;74.97;99648.94;1816779;78;25544;-51
2021/01/27 11:30:45;;;;;;;10.63;5.78;;;;;;;1.07;74.92;99637.20;1816677;78;25754;-45
2021/01/27 11:33:11;;;;;;;7.62;4.97;;;;;;;1.06;74.96;99639.08;1816687;78;25724;-47
2021/01/27 11:35:38;;;;;;;9.18;5.08;;;;;;;1.06;74.95;99637.75;1816812;78;27142;-44
2021/01/27 11:38:05;;;;;;;10.03;5.50;;;;;;;1.06;74.90;99640.41;1816621;78;25836;-39
2021/01/27 11:40:31;;;;;;;11.55;5.83;;;;;;;1.05;74.95;99634.80;1816761;78;25856;-49
2021/01/27 11:42:58;;;;;;;9.98;5.75;;;;;;;1.05;75.02;99629.48;1816767;78;25646;-43
2021/01/27 11:45:25;;;;;;;10.10;5.65;;;;;;;1.06;74.85;99634.30;1816674;78;25603;-42
2021/01/27 11:47:52;;;;;;;9.50;5.00;;;;;;;1.09;75.13;99637.23;1816621;78;25793;-42
2021/01/27 11:50:24;;;;;;;11.57;5.00;;;;;;;1.13;75.26;99639.38;1816654;78;25667;-48
2021/01/27 11:52:51;;;;;;;9.30;5.22;;;;;;;1.18;75.12;99647.38;1816676;78;26369;-46
2021/01/27 11:55:22;;;;;;;7.90;4.83;;;;;;;1.22;75.21;99645.23;1816767;78;25685;-49
2021/01/27 11:57:49;;;;;;;12.82;5.28;;;;;;;1.25;74.81;99647.39;1816743;78;25739;-40
2021/01/27 12:00:20;;;;;;;7.55;4.55;;;;;;;1.27;74.37;99646.59;1816705;78;25766;-48
2021/01/27 12:02:47;;;;;;;11.48;4.60;;;;;;;1.27;74.28;99646.59;1816722;78;25650;-47
2021/01/27 12:05:17;;;;;;;10.13;5.80;;;;;;;1.26;74.39;99646.34;1816742;78;25622;-54
2021/01/27 12:07:44;;;;;;;8.68;4.72;;;;;;;1.30;74.53;99643.40;1816704;78;25586;-52
2021/01/27 12:10:12;;;;;;;9.08;5.33;;;;;;;1.35;74.30;99637.83;1816859;78;26225;-48
2021/01/27 12:12:38;;;;;;;10.28;4.92;;;;;;;1.37;74.33;99638.36;1816814;78;25676;-53
2021/01/27 12:15:07;;;;;;;11.88;5.33;;;;;;;1.40;74.17;99636.51;1816535;78;25745;-46
2021/01/27 12:17:34;;;;;;;8.65;5.10;;;;;;;1.44;74.24;99634.36;1816907;78;26286;-46